Nissho Maru No7 — JH3472 — position and weather

sailwx.info

Track history (hours):
 
Tides and Currents Weather Stations Pressure Air Temp Water Temp Dewpoint Dewpoint Depression Visibility Wind Speed Wind Dir Waves Ship Positions

Nissho Maru No7

Last reported at 2015-Jul-02 21:33 UTC. Time now 2015-Jul-03 20:14 UTC.
Position N 35°55' E 140°40'.

Length 73 m; draft 4.8 m.

MMSI: 431200355.

Date/timePositionNaut miles runAvg speedWind from/ knotsBaromVisibWave heightAir tempDewpointWater temp
2015-Jul-02 21:33N 35°55' E 140°40'3 2.5
2015-Jul-02 20:33N 35°57' E 140°42'0 0.0
2015-Jul-02 19:33N 35°57' E 140°42'0 0.0
2015-Jul-02 18:32N 35°57' E 140°42'0 0.0
2015-Jul-02 17:25N 35°57' E 140°42'0 0.0
2015-Jul-02 16:08N 35°57' E 140°42'0 0.1
2015-Jul-02 15:31N 35°57' E 140°42'0 0.0
2015-Jul-02 13:10N 35°57' E 140°42'0 0.0
2015-Jul-02 12:32N 35°57' E 140°42'0 0.0
2015-Jul-02 11:30N 35°57' E 140°42'0 0.0
2015-Jul-02 10:32N 35°57' E 140°42'0 0.0
2015-Jul-02 09:28N 35°57' E 140°42'0 0.0
2015-Jul-02 08:25N 35°57' E 140°42'0 0.1
2015-Jul-02 07:27N 35°57' E 140°42'28 7.1
2015-Jul-02 03:28N 35°29' E 140°43'1112.3
2015-Jul-02 02:32N 35°20' E 140°34'2311.2
2015-Jul-02 00:30N 35°03' E 140°16'2511.8
2015-Jul-01 22:25N 34°52' E 139°49'910.9
2015-Jul-01 21:34N 35°01' E 139°44'1110.6
2015-Jul-01 20:34N 35°11' E 139°46'1110.6
2015-Jul-01 19:33N 35°21' E 139°42'6 5.1
2015-Jul-01 18:28N 35°27' E 139°42'0 0.0
2015-Jul-01 17:25N 35°27' E 139°42'0 0.0
2015-Jul-01 16:25N 35°27' E 139°42'0 0.0
2015-Jul-01 15:13N 35°27' E 139°42'0 0.1
2015-Jul-01 14:28N 35°27' E 139°42'0 0.0
2015-Jul-01 13:28N 35°27' E 139°42'0 0.1
2015-Jul-01 12:34N 35°27' E 139°42'0 0.0
2015-Jul-01 11:33N 35°27' E 139°42'0 0.0
2015-Jul-01 10:34N 35°27' E 139°42'0 0.0
2015-Jul-01 09:33N 35°27' E 139°42'0 0.0
2015-Jul-01 08:33N 35°27' E 139°42'0 0.0
2015-Jul-01 07:33N 35°27' E 139°42'0 0.0
2015-Jul-01 06:33N 35°27' E 139°42'0 0.0
2015-Jul-01 05:33N 35°27' E 139°42'0 0.0
2015-Jul-01 04:33N 35°27' E 139°42'0 0.0
2015-Jul-01 03:30N 35°27' E 139°42'0 0.0
2015-Jul-01 02:27N 35°27' E 139°42'0 0.0
2015-Jul-01 01:30N 35°27' E 139°42'0 0.0
2015-Jul-01 00:33N 35°27' E 139°42'0 0.1
2015-Jun-30 23:33N 35°27' E 139°42'0 0.0
2015-Jun-30 22:33N 35°27' E 139°42'0 0.0
2015-Jun-30 21:33N 35°27' E 139°42'0 0.0
2015-Jun-30 20:33N 35°27' E 139°42'0 0.1
2015-Jun-30 19:33N 35°27' E 139°42'0 0.0
2015-Jun-30 18:33N 35°27' E 139°42'0 0.0
2015-Jun-30 17:33N 35°27' E 139°42'0 0.0
2015-Jun-30 16:33N 35°27' E 139°42'0 0.0
2015-Jun-30 15:33N 35°27' E 139°42'0 0.0
2015-Jun-30 14:33N 35°27' E 139°42'0 0.0
2015-Jun-30 13:33N 35°27' E 139°42'0 0.0
2015-Jun-30 12:33N 35°27' E 139°42'0 0.0
2015-Jun-30 11:33N 35°27' E 139°42'0 0.0
2015-Jun-30 10:33N 35°27' E 139°42'0 0.0
2015-Jun-30 09:32N 35°27' E 139°42'7 7.0
2015-Jun-30 08:33N 35°29' E 139°50'9 8.6
2015-Jun-30 07:33N 35°38' E 139°48'0 0.1
2015-Jun-30 06:33N 35°38' E 139°48'0 0.0
2015-Jun-30 05:33N 35°38' E 139°48'0 0.0
2015-Jun-30 04:33N 35°38' E 139°48'0 0.0
2015-Jun-30 03:33N 35°38' E 139°48'0 0.0
2015-Jun-30 02:33N 35°38' E 139°48'0 0.0
2015-Jun-30 01:33N 35°38' E 139°48'0 0.0
2015-Jun-30 00:33N 35°38' E 139°48'0 0.1
2015-Jun-29 23:33N 35°38' E 139°48'4 4.0
2015-Jun-29 22:34N 35°36' E 139°52'7 7.0
2015-Jun-29 21:33N 35°40' E 139°59'1 0.7
2015-Jun-29 20:33N 35°41' E 139°58'0 0.0
2015-Jun-29 19:33N 35°41' E 139°58'0 0.0
2015-Jun-29 18:33N 35°41' E 139°58'0 0.0
2015-Jun-29 17:33N 35°41' E 139°58'0 0.0
2015-Jun-29 16:33N 35°41' E 139°58'0 0.0
2015-Jun-29 15:33N 35°41' E 139°58'0 0.0
2015-Jun-29 14:33N 35°41' E 139°58'0 0.0
2015-Jun-29 13:33N 35°41' E 139°58'0 0.0
2015-Jun-29 12:33N 35°41' E 139°58'0 0.0
2015-Jun-29 11:33N 35°41' E 139°58'0 0.0
2015-Jun-29 10:33N 35°41' E 139°58'0 0.0
2015-Jun-29 09:33N 35°41' E 139°58'0 0.0
2015-Jun-29 08:33N 35°41' E 139°58'0 0.0
2015-Jun-29 07:34N 35°41' E 139°58'5 4.9
2015-Jun-29 06:33N 35°36' E 139°59'5 4.6
2015-Jun-29 05:33N 35°37' E 140°05'0 0.0
2015-Jun-29 04:33N 35°37' E 140°05'0 0.4
2015-Jun-29 03:33N 35°36' E 140°05'3 2.7
2015-Jun-29 02:33N 35°34' E 140°03'0 0.0
2015-Jun-29 01:34N 35°34' E 140°03'0 0.0
2015-Jun-29 00:34N 35°34' E 140°03'0 0.0
2015-Jun-28 23:34N 35°34' E 140°03'0 0.0
2015-Jun-28 22:34N 35°34' E 140°03'0 0.0
2015-Jun-28 21:33N 35°34' E 140°03'0 0.0
2015-Jun-28 20:34N 35°34' E 140°03'0 0.0
2015-Jun-28 19:32N 35°34' E 140°03'0 0.0
2015-Jun-28 18:32N 35°34' E 140°03'0 0.0
2015-Jun-28 17:32N 35°34' E 140°03'0 0.0
2015-Jun-28 16:33N 35°34' E 140°03'0 0.0
2015-Jun-28 15:34N 35°34' E 140°03'0 0.0
2015-Jun-28 14:33N 35°34' E 140°03'0 0.0
2015-Jun-28 13:33N 35°34' E 140°03'0 0.0
2015-Jun-28 12:34N 35°34' E 140°03'0 0.0
2015-Jun-28 11:33N 35°34' E 140°03'0 0.0
2015-Jun-28 10:34N 35°34' E 140°03'0 0.0
2015-Jun-28 09:34N 35°34' E 140°03'0 0.0
2015-Jun-28 08:34N 35°34' E 140°03'0 0.0
2015-Jun-28 07:33N 35°34' E 140°03'0 0.0
2015-Jun-28 06:33N 35°34' E 140°03'0 0.0
2015-Jun-28 05:34N 35°34' E 140°03'0 0.0
2015-Jun-28 04:34N 35°34' E 140°03'0 0.1
2015-Jun-28 03:33N 35°34' E 140°03'0 0.0
2015-Jun-28 02:34N 35°34' E 140°03'0 0.0
2015-Jun-28 01:33N 35°34' E 140°03'0 0.0
2015-Jun-28 00:34N 35°34' E 140°03'0 0.0
2015-Jun-27 23:33N 35°34' E 140°03'0 0.1
2015-Jun-27 22:34N 35°34' E 140°03'0 0.0
2015-Jun-27 21:33N 35°34' E 140°03'0 0.0
2015-Jun-27 20:34N 35°34' E 140°03'0 0.0
2015-Jun-27 19:34N 35°34' E 140°03'0 0.0
2015-Jun-27 18:33N 35°34' E 140°03'0 0.0
2015-Jun-27 17:34N 35°34' E 140°03'0 0.0
2015-Jun-27 16:33N 35°34' E 140°03'2 2.5
2015-Jun-27 15:33N 35°33' E 140°00'1110.8
2015-Jun-27 14:34N 35°26' E 139°50'5 4.3
2015-Jun-27 13:30N 35°21' E 139°51'0 0.0
2015-Jun-27 09:18N 35°21' E 139°51'2 2.7
2015-Jun-27 08:33N 35°22' E 139°49'0 0.0
2015-Jun-27 07:33N 35°22' E 139°49'0 0.0
2015-Jun-27 06:33N 35°22' E 139°49'0 0.0
2015-Jun-27 05:33N 35°22' E 139°49'0 0.0
2015-Jun-27 04:33N 35°22' E 139°49'0 0.0
2015-Jun-27 03:33N 35°22' E 139°49'0 0.0
2015-Jun-27 02:33N 35°22' E 139°49'6 6.1
2015-Jun-27 01:33N 35°16' E 139°46'1110.7
2015-Jun-27 00:33N 35°06' E 139°46'1110.4
2015-Jun-26 23:30N 34°55' E 139°46'9 9.9
2015-Jun-26 22:33N 34°53' E 139°57'1211.0
2015-Jun-26 21:29N 34°60' E 140°09'2210.2
2015-Jun-26 19:19N 35°14' E 140°29'  
Track history (hours):
 
Tides and Currents Weather Stations Pressure Air Temp Water Temp Dewpoint Dewpoint Depression Visibility Wind Speed Wind Dir Waves Ship Positions

Nissho Maru No7

Last reported at 2015-Jul-02 21:33 UTC. Time now 2015-Jul-03 20:14 UTC.
Position N 35°55' E 140°40'.

Length 73 m; draft 4.8 m.

MMSI: 431200355.

Date/timePositionNaut miles runAvg speedWind from/ knotsBaromVisibWave heightAir tempDewpointWater temp
2015-Jul-02 21:33N 35°55' E 140°40'3 2.5
2015-Jul-02 20:33N 35°57' E 140°42'0 0.0
2015-Jul-02 19:33N 35°57' E 140°42'0 0.0
2015-Jul-02 18:32N 35°57' E 140°42'0 0.0
2015-Jul-02 17:25N 35°57' E 140°42'0 0.0
2015-Jul-02 16:08N 35°57' E 140°42'0 0.1
2015-Jul-02 15:31N 35°57' E 140°42'0 0.0
2015-Jul-02 13:10N 35°57' E 140°42'0 0.0
2015-Jul-02 12:32N 35°57' E 140°42'0 0.0
2015-Jul-02 11:30N 35°57' E 140°42'0 0.0
2015-Jul-02 10:32N 35°57' E 140°42'0 0.0
2015-Jul-02 09:28N 35°57' E 140°42'0 0.0
2015-Jul-02 08:25N 35°57' E 140°42'0 0.1
2015-Jul-02 07:27N 35°57' E 140°42'28 7.1
2015-Jul-02 03:28N 35°29' E 140°43'1112.3
2015-Jul-02 02:32N 35°20' E 140°34'2311.2
2015-Jul-02 00:30N 35°03' E 140°16'2511.8
2015-Jul-01 22:25N 34°52' E 139°49'910.9
2015-Jul-01 21:34N 35°01' E 139°44'1110.6
2015-Jul-01 20:34N 35°11' E 139°46'1110.6
2015-Jul-01 19:33N 35°21' E 139°42'6 5.1
2015-Jul-01 18:28N 35°27' E 139°42'0 0.0
2015-Jul-01 17:25N 35°27' E 139°42'0 0.0
2015-Jul-01 16:25N 35°27' E 139°42'0 0.0
2015-Jul-01 15:13N 35°27' E 139°42'0 0.1
2015-Jul-01 14:28N 35°27' E 139°42'0 0.0
2015-Jul-01 13:28N 35°27' E 139°42'0 0.1
2015-Jul-01 12:34N 35°27' E 139°42'0 0.0
2015-Jul-01 11:33N 35°27' E 139°42'0 0.0
2015-Jul-01 10:34N 35°27' E 139°42'0 0.0
2015-Jul-01 09:33N 35°27' E 139°42'0 0.0
2015-Jul-01 08:33N 35°27' E 139°42'0 0.0
2015-Jul-01 07:33N 35°27' E 139°42'0 0.0
2015-Jul-01 06:33N 35°27' E 139°42'0 0.0
2015-Jul-01 05:33N 35°27' E 139°42'0 0.0
2015-Jul-01 04:33N 35°27' E 139°42'0 0.0
2015-Jul-01 03:30N 35°27' E 139°42'0 0.0
2015-Jul-01 02:27N 35°27' E 139°42'0 0.0
2015-Jul-01 01:30N 35°27' E 139°42'0 0.0
2015-Jul-01 00:33N 35°27' E 139°42'0 0.1
2015-Jun-30 23:33N 35°27' E 139°42'0 0.0
2015-Jun-30 22:33N 35°27' E 139°42'0 0.0
2015-Jun-30 21:33N 35°27' E 139°42'0 0.0
2015-Jun-30 20:33N 35°27' E 139°42'0 0.1
2015-Jun-30 19:33N 35°27' E 139°42'0 0.0
2015-Jun-30 18:33N 35°27' E 139°42'0 0.0
2015-Jun-30 17:33N 35°27' E 139°42'0 0.0
2015-Jun-30 16:33N 35°27' E 139°42'0 0.0
2015-Jun-30 15:33N 35°27' E 139°42'0 0.0
2015-Jun-30 14:33N 35°27' E 139°42'0 0.0
2015-Jun-30 13:33N 35°27' E 139°42'0 0.0
2015-Jun-30 12:33N 35°27' E 139°42'0 0.0
2015-Jun-30 11:33N 35°27' E 139°42'0 0.0
2015-Jun-30 10:33N 35°27' E 139°42'0 0.0
2015-Jun-30 09:32N 35°27' E 139°42'7 7.0
2015-Jun-30 08:33N 35°29' E 139°50'9 8.6
2015-Jun-30 07:33N 35°38' E 139°48'0 0.1
2015-Jun-30 06:33N 35°38' E 139°48'0 0.0
2015-Jun-30 05:33N 35°38' E 139°48'0 0.0
2015-Jun-30 04:33N 35°38' E 139°48'0 0.0
2015-Jun-30 03:33N 35°38' E 139°48'0 0.0
2015-Jun-30 02:33N 35°38' E 139°48'0 0.0
2015-Jun-30 01:33N 35°38' E 139°48'0 0.0
2015-Jun-30 00:33N 35°38' E 139°48'0 0.1
2015-Jun-29 23:33N 35°38' E 139°48'4 4.0
2015-Jun-29 22:34N 35°36' E 139°52'7 7.0
2015-Jun-29 21:33N 35°40' E 139°59'1 0.7
2015-Jun-29 20:33N 35°41' E 139°58'0 0.0
2015-Jun-29 19:33N 35°41' E 139°58'0 0.0
2015-Jun-29 18:33N 35°41' E 139°58'0 0.0
2015-Jun-29 17:33N 35°41' E 139°58'0 0.0
2015-Jun-29 16:33N 35°41' E 139°58'0 0.0
2015-Jun-29 15:33N 35°41' E 139°58'0 0.0
2015-Jun-29 14:33N 35°41' E 139°58'0 0.0
2015-Jun-29 13:33N 35°41' E 139°58'0 0.0
2015-Jun-29 12:33N 35°41' E 139°58'0 0.0
2015-Jun-29 11:33N 35°41' E 139°58'0 0.0
2015-Jun-29 10:33N 35°41' E 139°58'0 0.0
2015-Jun-29 09:33N 35°41' E 139°58'0 0.0
2015-Jun-29 08:33N 35°41' E 139°58'0 0.0
2015-Jun-29 07:34N 35°41' E 139°58'5 4.9
2015-Jun-29 06:33N 35°36' E 139°59'5 4.6
2015-Jun-29 05:33N 35°37' E 140°05'0 0.0
2015-Jun-29 04:33N 35°37' E 140°05'0 0.4
2015-Jun-29 03:33N 35°36' E 140°05'3 2.7
2015-Jun-29 02:33N 35°34' E 140°03'0 0.0
2015-Jun-29 01:34N 35°34' E 140°03'0 0.0
2015-Jun-29 00:34N 35°34' E 140°03'0 0.0
2015-Jun-28 23:34N 35°34' E 140°03'0 0.0
2015-Jun-28 22:34N 35°34' E 140°03'0 0.0
2015-Jun-28 21:33N 35°34' E 140°03'0 0.0
2015-Jun-28 20:34N 35°34' E 140°03'0 0.0
2015-Jun-28 19:32N 35°34' E 140°03'0 0.0
2015-Jun-28 18:32N 35°34' E 140°03'0 0.0
2015-Jun-28 17:32N 35°34' E 140°03'0 0.0
2015-Jun-28 16:33N 35°34' E 140°03'0 0.0
2015-Jun-28 15:34N 35°34' E 140°03'0 0.0
2015-Jun-28 14:33N 35°34' E 140°03'0 0.0
2015-Jun-28 13:33N 35°34' E 140°03'0 0.0
2015-Jun-28 12:34N 35°34' E 140°03'0 0.0
2015-Jun-28 11:33N 35°34' E 140°03'0 0.0
2015-Jun-28 10:34N 35°34' E 140°03'0 0.0
2015-Jun-28 09:34N 35°34' E 140°03'0 0.0
2015-Jun-28 08:34N 35°34' E 140°03'0 0.0
2015-Jun-28 07:33N 35°34' E 140°03'0 0.0
2015-Jun-28 06:33N 35°34' E 140°03'0 0.0
2015-Jun-28 05:34N 35°34' E 140°03'0 0.0
2015-Jun-28 04:34N 35°34' E 140°03'0 0.1
2015-Jun-28 03:33N 35°34' E 140°03'0 0.0
2015-Jun-28 02:34N 35°34' E 140°03'0 0.0
2015-Jun-28 01:33N 35°34' E 140°03'0 0.0
2015-Jun-28 00:34N 35°34' E 140°03'0 0.0
2015-Jun-27 23:33N 35°34' E 140°03'0 0.1
2015-Jun-27 22:34N 35°34' E 140°03'0 0.0
2015-Jun-27 21:33N 35°34' E 140°03'0 0.0
2015-Jun-27 20:34N 35°34' E 140°03'0 0.0
2015-Jun-27 19:34N 35°34' E 140°03'0 0.0
2015-Jun-27 18:33N 35°34' E 140°03'0 0.0
2015-Jun-27 17:34N 35°34' E 140°03'0 0.0
2015-Jun-27 16:33N 35°34' E 140°03'2 2.5
2015-Jun-27 15:33N 35°33' E 140°00'1110.8
2015-Jun-27 14:34N 35°26' E 139°50'5 4.3
2015-Jun-27 13:30N 35°21' E 139°51'0 0.0
2015-Jun-27 09:18N 35°21' E 139°51'2 2.7
2015-Jun-27 08:33N 35°22' E 139°49'0 0.0
2015-Jun-27 07:33N 35°22' E 139°49'0 0.0
2015-Jun-27 06:33N 35°22' E 139°49'0 0.0
2015-Jun-27 05:33N 35°22' E 139°49'0 0.0
2015-Jun-27 04:33N 35°22' E 139°49'0 0.0
2015-Jun-27 03:33N 35°22' E 139°49'0 0.0
2015-Jun-27 02:33N 35°22' E 139°49'6 6.1
2015-Jun-27 01:33N 35°16' E 139°46'1110.7
2015-Jun-27 00:33N 35°06' E 139°46'1110.4
2015-Jun-26 23:30N 34°55' E 139°46'9 9.9
2015-Jun-26 22:33N 34°53' E 139°57'1211.0
2015-Jun-26 21:29N 34°60' E 140°09'2210.2
2015-Jun-26 19:19N 35°14' E 140°29'  

Dump ship's entire track history